Time,TemperatureF,DewpointF,PressureIn,WindDirection,WindDirectionDegrees,WindSpeedMPH,WindSpeedGustMPH,Humidity,HourlyPrecipIn,Conditions,Clouds,dailyrainin,SolarRadiationWatts/m^2,SoftwareType,DateUTC
2014-11-26 01:22:00,30.0,30.0,-100.00,South,187,5.0,7.0,99,-99.99,,,0.00,0.000000,,2014-11-26 07:22:00,
2014-11-26 01:32:00,30.0,30.0,-100.00,South,187,5.0,7.0,99,-99.99,,,0.00,0.000000,,2014-11-26 07:32:00,
2014-11-26 01:44:00,30.0,30.0,-100.00,South,187,5.0,7.0,99,-99.99,,,0.00,0.000000,,2014-11-26 07:44:00,
2014-11-26 02:22:00,31.0,31.0,-100.00,SW,228,6.0,7.0,99,-99.99,,,0.00,0.000000,,2014-11-26 08:22:00,
2014-11-26 02:32:00,31.0,31.0,-100.00,SW,228,6.0,7.0,99,-99.99,,,0.00,0.000000,,2014-11-26 08:32:00,
2014-11-26 02:42:00,31.0,31.0,-100.00,SW,228,6.0,7.0,99,-99.99,,,0.00,0.000000,,2014-11-26 08:42:00,
2014-11-26 02:53:00,31.0,31.0,-100.00,SW,228,6.0,7.0,99,-99.99,,,0.00,0.000000,,2014-11-26 08:53:00,
2014-11-26 03:22:00,30.0,30.0,-100.00,SW,224,5.0,8.0,99,0.00,,,0.00,0.000000,,2014-11-26 09:22:00,
2014-11-26 03:34:00,30.0,30.0,-100.00,SW,224,5.0,8.0,99,0.00,,,0.00,0.000000,,2014-11-26 09:34:00,
2014-11-26 03:43:00,30.0,30.0,-100.00,SW,224,5.0,8.0,99,0.00,,,0.00,0.000000,,2014-11-26 09:43:00,
2014-11-26 03:53:00,30.0,30.0,-100.00,SW,224,5.0,8.0,99,0.00,,,0.00,0.000000,,2014-11-26 09:53:00,
2014-11-26 04:23:00,29.0,29.0,-100.00,SW,224,5.0,7.0,99,0.00,,,0.00,0.000000,,2014-11-26 10:23:00,
2014-11-26 04:33:00,29.0,29.0,-100.00,SW,224,5.0,7.0,99,0.00,,,0.00,0.000000,,2014-11-26 10:33:00,
2014-11-26 04:42:00,29.0,29.0,-100.00,SW,224,5.0,7.0,99,0.00,,,0.00,0.000000,,2014-11-26 10:42:00,
2014-11-26 04:53:00,29.0,29.0,-100.00,SW,224,5.0,7.0,99,0.00,,,0.00,0.000000,,2014-11-26 10:53:00,
2014-11-26 05:22:00,29.0,29.0,-100.00,SW,225,6.0,9.0,99,0.00,,,0.00,0.000000,,2014-11-26 11:22:00,
2014-11-26 05:33:00,29.0,29.0,-100.00,SW,225,6.0,9.0,99,0.00,,,0.00,0.000000,,2014-11-26 11:33:00,
2014-11-26 05:42:00,29.0,29.0,-100.00,SW,225,6.0,9.0,99,0.00,,,0.00,0.000000,,2014-11-26 11:42:00,
2014-11-26 05:53:00,29.0,29.0,-100.00,SW,225,6.0,9.0,99,0.00,,,0.00,0.000000,,2014-11-26 11:53:00,
2014-11-26 06:22:00,29.0,29.0,-100.00,SW,217,6.0,9.0,99,0.00,,,0.00,0.000000,,2014-11-26 12:22:00,
2014-11-26 06:32:00,29.0,29.0,-100.00,SW,217,6.0,9.0,99,0.00,,,0.00,0.000000,,2014-11-26 12:32:00,
2014-11-26 06:42:00,29.0,29.0,-100.00,SW,217,6.0,9.0,99,0.00,,,0.00,0.000000,,2014-11-26 12:42:00,
2014-11-26 06:52:00,29.0,29.0,-100.00,SW,217,6.0,9.0,99,0.00,,,0.00,0.000000,,2014-11-26 12:52:00,
2014-11-26 07:22:00,35.0,35.0,-100.00,SW,222,7.0,11.0,99,0.00,,,0.00,1.000000,,2014-11-26 13:22:00,
2014-11-26 07:32:00,35.0,35.0,-100.00,SW,222,7.0,11.0,99,0.00,,,0.00,1.000000,,2014-11-26 13:32:00,
2014-11-26 07:42:00,35.0,35.0,-100.00,SW,222,7.0,11.0,99,0.00,,,0.00,1.000000,,2014-11-26 13:42:00,
2014-11-26 07:52:00,35.0,35.0,-100.00,SW,222,7.0,11.0,99,0.00,,,0.00,1.000000,,2014-11-26 13:52:00,
2014-11-26 08:42:00,44.0,42.0,-100.00,SW,215,9.0,16.0,94,0.00,,,0.00,78.000000,,2014-11-26 14:42:00,
2014-11-26 08:52:00,44.0,42.0,-100.00,SW,215,9.0,16.0,94,0.00,,,0.00,78.000000,,2014-11-26 14:52:00,
2014-11-26 09:23:00,50.0,39.0,-100.00,SW,216,7.0,17.0,65,0.00,,,0.00,254.000000,,2014-11-26 15:23:00,
2014-11-26 09:34:00,50.0,39.0,-100.00,SW,216,7.0,17.0,65,0.00,,,0.00,254.000000,,2014-11-26 15:34:00,
2014-11-26 09:43:00,50.0,39.0,-100.00,SW,216,7.0,17.0,65,0.00,,,0.00,254.000000,,2014-11-26 15:43:00,
2014-11-26 09:53:00,50.0,39.0,-100.00,SW,216,7.0,17.0,65,0.00,,,0.00,254.000000,,2014-11-26 15:53:00,
2014-11-26 10:24:00,56.0,39.0,-100.00,SW,215,9.0,24.0,52,0.00,,,0.00,379.000000,,2014-11-26 16:24:00,
2014-11-26 10:33:00,56.0,39.0,-100.00,SW,215,9.0,24.0,52,0.00,,,0.00,379.000000,,2014-11-26 16:33:00,
2014-11-26 10:44:00,56.0,39.0,-100.00,SW,215,9.0,24.0,52,0.00,,,0.00,379.000000,,2014-11-26 16:44:00,
2014-11-26 10:54:00,56.0,39.0,-100.00,SW,215,9.0,24.0,52,0.00,,,0.00,379.000000,,2014-11-26 16:54:00,
2014-11-26 12:23:00,65.0,33.0,-100.00,WSW,247,13.0,29.0,30,-99.99,,,0.00,599.000000,,2014-11-26 18:23:00,
2014-11-26 12:33:00,65.0,33.0,-100.00,WSW,247,13.0,29.0,30,-99.99,,,0.00,599.000000,,2014-11-26 18:33:00,
2014-11-26 12:43:00,65.0,33.0,-100.00,WSW,247,13.0,29.0,30,-99.99,,,0.00,599.000000,,2014-11-26 18:43:00,
2014-11-26 12:53:00,65.0,33.0,-100.00,WSW,247,13.0,29.0,30,-99.99,,,0.00,599.000000,,2014-11-26 18:53:00,
2014-11-26 13:22:00,66.0,33.0,-100.00,WSW,256,12.0,26.0,29,0.00,,,0.00,606.000000,,2014-11-26 19:22:00,
2014-11-26 13:32:00,66.0,33.0,-100.00,WSW,256,12.0,26.0,29,0.00,,,0.00,606.000000,,2014-11-26 19:32:00,
2014-11-26 13:42:00,66.0,33.0,-100.00,WSW,256,12.0,26.0,29,0.00,,,0.00,606.000000,,2014-11-26 19:42:00,
2014-11-26 13:52:00,66.0,33.0,-100.00,WSW,256,12.0,26.0,29,0.00,,,0.00,606.000000,,2014-11-26 19:52:00,
2014-11-26 14:22:00,68.0,33.0,-100.00,WSW,246,12.0,22.0,27,0.00,,,0.00,538.000000,,2014-11-26 20:22:00,
2014-11-26 14:32:00,68.0,33.0,-100.00,WSW,246,12.0,22.0,27,0.00,,,0.00,538.000000,,2014-11-26 20:32:00,
2014-11-26 14:42:00,68.0,33.0,-100.00,WSW,246,12.0,22.0,27,0.00,,,0.00,538.000000,,2014-11-26 20:42:00,
2014-11-26 14:52:00,68.0,33.0,-100.00,WSW,246,12.0,22.0,27,0.00,,,0.00,538.000000,,2014-11-26 20:52:00,
2014-11-26 15:23:00,68.0,34.0,-100.00,WSW,247,9.0,21.0,28,0.00,,,0.00,400.000000,,2014-11-26 21:23:00,
2014-11-26 15:33:00,68.0,34.0,-100.00,WSW,247,9.0,21.0,28,0.00,,,0.00,400.000000,,2014-11-26 21:33:00,
2014-11-26 15:44:00,68.0,34.0,-100.00,WSW,247,9.0,21.0,28,0.00,,,0.00,400.000000,,2014-11-26 21:44:00,
2014-11-26 15:53:00,68.0,34.0,-100.00,WSW,247,9.0,21.0,28,0.00,,,0.00,400.000000,,2014-11-26 21:53:00,
2014-11-26 16:23:00,67.0,34.0,-100.00,WSW,246,9.0,15.0,29,0.00,,,0.00,265.000000,,2014-11-26 22:23:00,
2014-11-26 16:34:00,67.0,34.0,-100.00,WSW,246,9.0,15.0,29,0.00,,,0.00,265.000000,,2014-11-26 22:34:00,
2014-11-26 16:43:00,67.0,34.0,-100.00,WSW,246,9.0,15.0,29,0.00,,,0.00,265.000000,,2014-11-26 22:43:00,
2014-11-26 16:53:00,67.0,34.0,-100.00,WSW,246,9.0,15.0,29,0.00,,,0.00,265.000000,,2014-11-26 22:53:00,
2014-11-26 17:43:00,58.0,34.0,-100.00,WSW,257,6.0,15.0,40,0.00,,,-99.99,70.000000,,2014-11-26 23:43:00,
2014-11-26 17:53:00,58.0,34.0,-100.00,WSW,257,6.0,15.0,40,0.00,,,-99.99,70.000000,,2014-11-26 23:53:00,